DLH6KB LPPR-EHAM
Flight info
| Callsign | DLH6KB |
|---|---|
| Flight time | 2h 8m |
| Altitude | 38000 |
| Route | TURON P600 ASDEB DCT LOTEE DCT AZFIC DCT ERIGA DCT GODIX DCT PODEM UN873 BAZOS DCT LUMIL DCT BELOB UY873 DENUT |
| Aircraft | A20N/M-V/N |
Departure
| Time | 2026-05-05 16:42 |
|---|---|
| Airport | Francisco de Sá Carneiro Airport (LPPR) |
Arrival
| Time | 2026-05-05 18:51 |
|---|---|
| Airport | Amsterdam Airport Schiphol (EHAM) |
| Time | Latitude | Longitude | Altitude | Speed | Heading |
|---|---|---|---|---|---|
| 2026-05-05 16:31 | 41.23439 | -8.67262 | 259 ft | 0 kts | 60° |
| 2026-05-05 16:36 | 41.23436 | -8.67269 | 259 ft | 3 kts | 62° |
| 2026-05-05 16:37 | 41.23426 | -8.67294 | 260 ft | 3 kts | 62° |
| 2026-05-05 16:37 | 41.23415 | -8.67320 | 261 ft | 3 kts | 61° |
| 2026-05-05 16:37 | 41.23408 | -8.67346 | 261 ft | 3 kts | 93° |
| 2026-05-05 16:37 | 41.23416 | -8.67370 | 262 ft | 3 kts | 151° |
| 2026-05-05 16:38 | 41.23419 | -8.67373 | 262 ft | 0 kts | 162° |
| 2026-05-05 16:39 | 41.23405 | -8.67368 | 262 ft | 6 kts | 171° |
| 2026-05-05 16:39 | 41.23354 | -8.67386 | 263 ft | 8 kts | 218° |
| 2026-05-05 16:40 | 41.23341 | -8.67410 | 264 ft | 0 kts | 242° |
| 2026-05-05 16:40 | 41.23337 | -8.67424 | 265 ft | 8 kts | 250° |
| 2026-05-05 16:40 | 41.23324 | -8.67506 | 268 ft | 10 kts | 257° |
| 2026-05-05 16:41 | 41.23310 | -8.67595 | 273 ft | 9 kts | 258° |
| 2026-05-05 16:41 | 41.23304 | -8.67684 | 277 ft | 17 kts | 281° |
| 2026-05-05 16:41 | 41.23396 | -8.67757 | 274 ft | 20 kts | 349° |
| 2026-05-05 16:41 | 41.23792 | -8.67866 | 256 ft | 97 kts | 348° |
| 2026-05-05 16:42 | 41.24661 | -8.68097 | 271 ft | 152 kts | 348° |
| 2026-05-05 16:42 | 41.25742 | -8.68374 | 738 ft | 166 kts | 349° |
| 2026-05-05 16:42 | 41.26946 | -8.68677 | 1268 ft | 184 kts | 348° |
| 2026-05-05 16:42 | 41.28216 | -8.69008 | 2075 ft | 185 kts | 348° |
| 2026-05-05 16:43 | 41.29511 | -8.69353 | 2821 ft | 194 kts | 348° |
| 2026-05-05 16:43 | 41.30856 | -8.69712 | 3621 ft | 199 kts | 348° |
| 2026-05-05 16:43 | 41.32216 | -8.70072 | 4461 ft | 200 kts | 348° |
| 2026-05-05 16:43 | 41.33588 | -8.70434 | 5282 ft | 202 kts | 348° |
| 2026-05-05 16:44 | 41.35029 | -8.70814 | 5781 ft | 225 kts | 348° |
| 2026-05-05 16:44 | 41.36644 | -8.71236 | 6246 ft | 248 kts | 348° |
| 2026-05-05 16:44 | 41.38411 | -8.71700 | 6750 ft | 269 kts | 348° |
| 2026-05-05 16:44 | 41.40281 | -8.72190 | 7503 ft | 276 kts | 348° |
| 2026-05-05 16:45 | 41.42196 | -8.72525 | 8412 ft | 280 kts | 358° |
| 2026-05-05 16:45 | 41.44153 | -8.72348 | 9283 ft | 285 kts | 9° |
| 2026-05-05 16:45 | 41.46122 | -8.71836 | 9806 ft | 290 kts | 11° |
| 2026-05-05 16:45 | 41.48104 | -8.71323 | 9935 ft | 291 kts | 10° |
| 2026-05-05 16:46 | 41.50105 | -8.70812 | 10113 ft | 297 kts | 10° |
| 2026-05-05 16:46 | 41.52182 | -8.70286 | 10320 ft | 320 kts | 10° |
| 2026-05-05 16:46 | 41.54463 | -8.69710 | 10748 ft | 337 kts | 10° |
| 2026-05-05 16:46 | 41.56754 | -8.69129 | 11521 ft | 342 kts | 10° |
| 2026-05-05 16:47 | 41.59084 | -8.68538 | 12292 ft | 346 kts | 10° |
| 2026-05-05 16:47 | 41.61494 | -8.67926 | 13085 ft | 350 kts | 10° |
| 2026-05-05 16:47 | 41.63896 | -8.67316 | 13838 ft | 353 kts | 10° |
| 2026-05-05 16:47 | 41.66328 | -8.66698 | 14596 ft | 357 kts | 10° |
| 2026-05-05 16:48 | 41.68789 | -8.66072 | 15248 ft | 362 kts | 10° |
| 2026-05-05 16:48 | 41.71270 | -8.65440 | 16005 ft | 364 kts | 10° |
| 2026-05-05 16:48 | 41.73778 | -8.64801 | 16676 ft | 368 kts | 10° |
| 2026-05-05 16:48 | 41.76308 | -8.64156 | 17337 ft | 372 kts | 10° |
| 2026-05-05 16:49 | 41.78864 | -8.63504 | 17966 ft | 376 kts | 10° |
| 2026-05-05 16:49 | 41.81449 | -8.62843 | 18573 ft | 380 kts | 10° |
| 2026-05-05 16:49 | 41.84060 | -8.62176 | 19149 ft | 384 kts | 10° |
| 2026-05-05 16:49 | 41.86695 | -8.61502 | 19737 ft | 388 kts | 10° |
| 2026-05-05 16:50 | 41.89327 | -8.60828 | 20337 ft | 391 kts | 11° |
| 2026-05-05 16:50 | 41.92013 | -8.60139 | 20900 ft | 394 kts | 11° |
| 2026-05-05 16:50 | 41.94756 | -8.59436 | 21467 ft | 398 kts | 11° |
| 2026-05-05 16:50 | 41.97456 | -8.58743 | 21986 ft | 401 kts | 11° |
| 2026-05-05 16:51 | 42.00208 | -8.58036 | 22528 ft | 404 kts | 11° |
| 2026-05-05 16:51 | 42.02982 | -8.57322 | 23053 ft | 407 kts | 11° |
| 2026-05-05 16:51 | 42.05775 | -8.56603 | 23608 ft | 409 kts | 11° |
| 2026-05-05 16:51 | 42.08599 | -8.56045 | 24078 ft | 413 kts | 6° |
| 2026-05-05 16:52 | 42.11469 | -8.55600 | 24544 ft | 416 kts | 6° |
| 2026-05-05 16:52 | 42.14354 | -8.55145 | 24970 ft | 420 kts | 6° |
| 2026-05-05 16:52 | 42.17265 | -8.54682 | 25443 ft | 422 kts | 6° |
| 2026-05-05 16:52 | 42.20181 | -8.54217 | 25891 ft | 424 kts | 6° |
| 2026-05-05 16:53 | 42.23131 | -8.53746 | 26292 ft | 428 kts | 6° |
| 2026-05-05 16:53 | 42.26097 | -8.53273 | 26669 ft | 431 kts | 6° |
| 2026-05-05 16:53 | 42.29082 | -8.52796 | 27097 ft | 433 kts | 6° |
| 2026-05-05 16:53 | 42.32080 | -8.52318 | 27441 ft | 436 kts | 6° |
| 2026-05-05 16:54 | 42.35108 | -8.51833 | 27807 ft | 439 kts | 6° |
| 2026-05-05 16:54 | 42.38152 | -8.51346 | 28156 ft | 441 kts | 6° |
| 2026-05-05 16:54 | 42.41208 | -8.50857 | 28515 ft | 444 kts | 6° |
| 2026-05-05 16:54 | 42.44254 | -8.50369 | 28810 ft | 447 kts | 6° |
| 2026-05-05 16:55 | 42.47351 | -8.49853 | 29131 ft | 449 kts | 9° |
| 2026-05-05 16:55 | 42.50377 | -8.48791 | 29413 ft | 452 kts | 20° |
| 2026-05-05 16:55 | 42.53199 | -8.46919 | 29758 ft | 452 kts | 32° |
| 2026-05-05 16:55 | 42.55720 | -8.44338 | 29997 ft | 456 kts | 41° |
| 2026-05-05 16:56 | 42.58109 | -8.41497 | 30314 ft | 458 kts | 41° |
| 2026-05-05 16:56 | 42.60517 | -8.38644 | 30539 ft | 462 kts | 41° |
| 2026-05-05 16:56 | 42.62941 | -8.35773 | 30851 ft | 463 kts | 41° |
| 2026-05-05 16:56 | 42.65376 | -8.32889 | 31172 ft | 465 kts | 41° |
| 2026-05-05 16:57 | 42.67813 | -8.29999 | 31524 ft | 465 kts | 41° |
| 2026-05-05 16:57 | 42.70236 | -8.27120 | 31971 ft | 462 kts | 41° |
| 2026-05-05 16:57 | 42.72653 | -8.24246 | 32337 ft | 461 kts | 41° |
| 2026-05-05 16:57 | 42.75067 | -8.21371 | 32703 ft | 460 kts | 41° |
| 2026-05-05 16:58 | 42.77475 | -8.18500 | 33029 ft | 460 kts | 41° |
| 2026-05-05 16:58 | 42.79880 | -8.15629 | 33361 ft | 460 kts | 41° |
| 2026-05-05 16:58 | 42.82255 | -8.12791 | 33709 ft | 458 kts | 41° |
| 2026-05-05 16:58 | 42.84648 | -8.09929 | 34026 ft | 457 kts | 41° |
| 2026-05-05 16:59 | 42.87032 | -8.07074 | 34329 ft | 457 kts | 41° |
| 2026-05-05 16:59 | 42.89425 | -8.04206 | 34591 ft | 457 kts | 41° |
| 2026-05-05 16:59 | 42.91811 | -8.01343 | 34852 ft | 456 kts | 41° |
| 2026-05-05 16:59 | 42.94198 | -7.98475 | 35117 ft | 456 kts | 41° |
| 2026-05-05 17:00 | 42.96574 | -7.95617 | 35346 ft | 456 kts | 41° |
| 2026-05-05 17:00 | 42.98955 | -7.92751 | 35576 ft | 456 kts | 41° |
| 2026-05-05 17:00 | 43.01334 | -7.89884 | 35797 ft | 456 kts | 41° |
| 2026-05-05 17:00 | 43.03716 | -7.87010 | 36061 ft | 455 kts | 41° |
| 2026-05-05 17:01 | 43.06088 | -7.84145 | 36292 ft | 454 kts | 41° |
| 2026-05-05 17:01 | 43.08455 | -7.81283 | 36492 ft | 454 kts | 41° |
| 2026-05-05 17:01 | 43.10822 | -7.78418 | 36686 ft | 454 kts | 41° |
| 2026-05-05 17:01 | 43.13186 | -7.75554 | 36856 ft | 454 kts | 41° |
| 2026-05-05 17:02 | 43.15552 | -7.72684 | 37058 ft | 454 kts | 41° |
| 2026-05-05 17:02 | 43.17909 | -7.69822 | 37248 ft | 453 kts | 41° |
| 2026-05-05 17:02 | 43.20271 | -7.66950 | 37391 ft | 454 kts | 41° |
| 2026-05-05 17:02 | 43.22631 | -7.64078 | 37551 ft | 454 kts | 41° |
| 2026-05-05 17:03 | 43.24963 | -7.61238 | 37699 ft | 454 kts | 41° |
| 2026-05-05 17:03 | 43.27324 | -7.58358 | 37852 ft | 454 kts | 41° |
| 2026-05-05 17:03 | 43.29685 | -7.55477 | 37991 ft | 454 kts | 41° |
| 2026-05-05 17:03 | 43.32043 | -7.52595 | 38001 ft | 453 kts | 41° |
| 2026-05-05 17:04 | 43.36750 | -7.46832 | 38000 ft | 453 kts | 41° |
| 2026-05-05 17:04 | 43.41456 | -7.41058 | 38000 ft | 454 kts | 41° |
| 2026-05-05 17:05 | 43.46150 | -7.35287 | 38000 ft | 450 kts | 41° |
| 2026-05-05 17:05 | 43.50814 | -7.29541 | 38000 ft | 450 kts | 41° |
| 2026-05-05 17:06 | 43.55484 | -7.23775 | 38000 ft | 450 kts | 41° |
| 2026-05-05 17:06 | 43.60146 | -7.18005 | 38000 ft | 450 kts | 41° |
| 2026-05-05 17:07 | 43.64774 | -7.12265 | 38000 ft | 450 kts | 41° |
| 2026-05-05 17:07 | 43.69426 | -7.06484 | 38001 ft | 450 kts | 42° |
| 2026-05-05 17:08 | 43.74080 | -7.00686 | 38002 ft | 450 kts | 42° |
| 2026-05-05 17:08 | 43.77942 | -6.95866 | 38002 ft | 450 kts | 42° |
| 2026-05-05 17:09 | 43.82592 | -6.90051 | 38003 ft | 450 kts | 42° |
| 2026-05-05 17:09 | 43.87239 | -6.84228 | 38003 ft | 450 kts | 42° |
| 2026-05-05 17:10 | 43.91885 | -6.78392 | 38004 ft | 450 kts | 42° |
| 2026-05-05 17:10 | 43.96521 | -6.72556 | 38003 ft | 450 kts | 42° |
| 2026-05-05 17:11 | 44.01166 | -6.66695 | 38003 ft | 450 kts | 42° |
| 2026-05-05 17:11 | 44.05798 | -6.60839 | 38003 ft | 450 kts | 42° |
| 2026-05-05 17:12 | 44.10425 | -6.54976 | 38002 ft | 450 kts | 42° |
| 2026-05-05 17:12 | 44.15021 | -6.49138 | 38002 ft | 450 kts | 42° |
| 2026-05-05 17:13 | 44.19642 | -6.43256 | 38001 ft | 450 kts | 42° |
| 2026-05-05 17:13 | 44.24260 | -6.37366 | 38000 ft | 450 kts | 42° |
| 2026-05-05 17:14 | 44.28880 | -6.31459 | 38000 ft | 450 kts | 42° |
| 2026-05-05 17:14 | 44.33490 | -6.25552 | 37999 ft | 450 kts | 42° |
| 2026-05-05 17:15 | 44.38096 | -6.19637 | 37999 ft | 450 kts | 42° |
| 2026-05-05 17:15 | 44.42670 | -6.13750 | 37999 ft | 450 kts | 42° |
| 2026-05-05 17:16 | 44.47274 | -6.07811 | 37999 ft | 450 kts | 42° |
| 2026-05-05 17:16 | 44.51873 | -6.01864 | 37999 ft | 450 kts | 43° |
| 2026-05-05 17:17 | 44.56465 | -5.95915 | 37999 ft | 450 kts | 43° |
| 2026-05-05 17:17 | 44.61056 | -5.89955 | 38000 ft | 450 kts | 43° |
| 2026-05-05 17:18 | 44.65644 | -5.83986 | 37999 ft | 450 kts | 43° |
| 2026-05-05 17:18 | 44.70107 | -5.77820 | 37999 ft | 450 kts | 44° |
| 2026-05-05 17:19 | 44.74580 | -5.71742 | 38000 ft | 450 kts | 44° |
| 2026-05-05 17:19 | 44.79077 | -5.65599 | 38000 ft | 450 kts | 44° |
| 2026-05-05 17:20 | 44.83557 | -5.59443 | 38001 ft | 450 kts | 44° |
| 2026-05-05 17:20 | 44.88031 | -5.53276 | 38002 ft | 450 kts | 44° |
| 2026-05-05 17:21 | 44.92509 | -5.47088 | 38002 ft | 450 kts | 44° |
| 2026-05-05 17:22 | 44.99216 | -5.37795 | 38002 ft | 450 kts | 44° |
| 2026-05-05 17:22 | 45.03653 | -5.31629 | 38002 ft | 450 kts | 44° |
| 2026-05-05 17:23 | 45.08118 | -5.25409 | 38002 ft | 450 kts | 44° |
| 2026-05-05 17:23 | 45.12575 | -5.19186 | 38002 ft | 450 kts | 44° |
| 2026-05-05 17:24 | 45.17027 | -5.12956 | 38002 ft | 450 kts | 44° |
| 2026-05-05 17:24 | 45.21484 | -5.06705 | 38001 ft | 450 kts | 44° |
| 2026-05-05 17:25 | 45.25929 | -5.00455 | 38001 ft | 450 kts | 44° |
| 2026-05-05 17:25 | 45.30373 | -4.94194 | 38001 ft | 450 kts | 45° |
| 2026-05-05 17:26 | 45.34812 | -4.87923 | 38000 ft | 450 kts | 45° |
| 2026-05-05 17:26 | 45.39219 | -4.81684 | 38000 ft | 450 kts | 45° |
| 2026-05-05 17:27 | 45.43652 | -4.75393 | 38000 ft | 450 kts | 45° |
| 2026-05-05 17:27 | 45.48082 | -4.69091 | 38000 ft | 450 kts | 45° |
| 2026-05-05 17:28 | 45.52508 | -4.62781 | 37999 ft | 450 kts | 45° |
| 2026-05-05 17:28 | 45.56928 | -4.56464 | 38000 ft | 450 kts | 45° |
| 2026-05-05 17:29 | 45.61350 | -4.50129 | 38000 ft | 450 kts | 45° |
| 2026-05-05 17:29 | 45.65742 | -4.43822 | 38000 ft | 450 kts | 45° |
| 2026-05-05 17:30 | 45.70154 | -4.37472 | 38000 ft | 450 kts | 45° |
| 2026-05-05 17:30 | 45.74563 | -4.31112 | 38000 ft | 450 kts | 45° |
| 2026-05-05 17:31 | 45.78965 | -4.24744 | 38000 ft | 450 kts | 45° |
| 2026-05-05 17:31 | 45.83367 | -4.18364 | 38000 ft | 450 kts | 45° |
| 2026-05-05 17:32 | 45.87763 | -4.11976 | 38001 ft | 450 kts | 45° |
| 2026-05-05 17:32 | 45.92154 | -4.05579 | 38001 ft | 450 kts | 45° |
| 2026-05-05 17:33 | 45.96545 | -3.99169 | 38001 ft | 450 kts | 45° |
| 2026-05-05 17:33 | 46.00930 | -3.92751 | 38001 ft | 450 kts | 45° |
| 2026-05-05 17:34 | 46.05316 | -3.86316 | 38001 ft | 450 kts | 45° |
| 2026-05-05 17:34 | 46.09700 | -3.79869 | 38001 ft | 450 kts | 45° |
| 2026-05-05 17:35 | 46.14073 | -3.73421 | 38001 ft | 450 kts | 45° |
| 2026-05-05 17:35 | 46.18447 | -3.66957 | 38001 ft | 450 kts | 45° |
| 2026-05-05 17:36 | 46.22793 | -3.60520 | 38001 ft | 450 kts | 45° |
| 2026-05-05 17:36 | 46.27158 | -3.54038 | 38001 ft | 450 kts | 45° |
| 2026-05-05 17:37 | 46.31516 | -3.47551 | 38001 ft | 450 kts | 46° |
| 2026-05-05 17:37 | 46.35875 | -3.41046 | 38001 ft | 450 kts | 46° |
| 2026-05-05 17:38 | 46.40226 | -3.34537 | 38001 ft | 450 kts | 46° |
| 2026-05-05 17:38 | 46.44576 | -3.28014 | 38000 ft | 450 kts | 46° |
| 2026-05-05 17:39 | 46.48927 | -3.21475 | 38001 ft | 450 kts | 46° |
| 2026-05-05 17:39 | 46.53272 | -3.14931 | 38000 ft | 450 kts | 46° |
| 2026-05-05 17:40 | 46.57278 | -3.07962 | 37999 ft | 450 kts | 54° |
| 2026-05-05 17:40 | 46.60567 | -3.00234 | 37998 ft | 450 kts | 59° |
| 2026-05-05 17:41 | 46.63737 | -2.92381 | 37998 ft | 450 kts | 59° |
| 2026-05-05 17:41 | 46.66904 | -2.84515 | 37999 ft | 450 kts | 59° |
| 2026-05-05 17:42 | 46.70056 | -2.76627 | 38000 ft | 450 kts | 59° |
| 2026-05-05 17:42 | 46.73200 | -2.68727 | 38000 ft | 450 kts | 60° |
| 2026-05-05 17:43 | 46.76336 | -2.60824 | 38001 ft | 450 kts | 60° |
| 2026-05-05 17:43 | 46.79450 | -2.52955 | 38001 ft | 450 kts | 60° |
| 2026-05-05 17:44 | 46.82578 | -2.45027 | 38002 ft | 450 kts | 60° |
| 2026-05-05 17:44 | 46.85884 | -2.37270 | 38001 ft | 450 kts | 53° |
| 2026-05-05 17:45 | 46.90011 | -2.30407 | 38001 ft | 450 kts | 45° |
| 2026-05-05 17:45 | 46.94404 | -2.23893 | 38000 ft | 450 kts | 45° |
| 2026-05-05 17:46 | 46.98789 | -2.17354 | 38001 ft | 450 kts | 45° |
| 2026-05-05 17:46 | 47.03180 | -2.10805 | 38001 ft | 450 kts | 45° |
| 2026-05-05 17:47 | 47.07563 | -2.04254 | 38002 ft | 450 kts | 45° |
| 2026-05-05 17:47 | 47.11948 | -1.97686 | 38002 ft | 450 kts | 45° |
| 2026-05-05 17:48 | 47.16329 | -1.91106 | 38001 ft | 450 kts | 45° |
| 2026-05-05 17:48 | 47.20703 | -1.84521 | 38002 ft | 450 kts | 45° |
| 2026-05-05 17:49 | 47.25072 | -1.77926 | 38002 ft | 450 kts | 45° |
| 2026-05-05 17:49 | 47.29413 | -1.71357 | 37999 ft | 450 kts | 45° |
| 2026-05-05 17:50 | 47.33779 | -1.64734 | 38000 ft | 450 kts | 45° |
| 2026-05-05 17:50 | 47.38146 | -1.58093 | 38001 ft | 450 kts | 46° |
| 2026-05-05 17:51 | 47.42504 | -1.51447 | 38002 ft | 450 kts | 46° |
| 2026-05-05 17:51 | 47.46859 | -1.44791 | 38001 ft | 450 kts | 46° |
| 2026-05-05 17:52 | 47.51202 | -1.38134 | 38001 ft | 450 kts | 46° |
| 2026-05-05 17:52 | 47.55527 | -1.31490 | 38000 ft | 450 kts | 46° |
| 2026-05-05 17:53 | 47.59869 | -1.24802 | 37999 ft | 450 kts | 46° |
| 2026-05-05 17:53 | 47.63475 | -1.19235 | 37999 ft | 450 kts | 46° |
| 2026-05-05 17:54 | 47.67836 | -1.12486 | 37998 ft | 450 kts | 46° |
| 2026-05-05 17:54 | 47.72136 | -1.05815 | 37999 ft | 450 kts | 46° |
| 2026-05-05 17:55 | 47.76465 | -0.99080 | 37999 ft | 450 kts | 46° |
| 2026-05-05 17:55 | 47.80785 | -0.92343 | 38000 ft | 450 kts | 46° |
| 2026-05-05 17:56 | 47.85108 | -0.85584 | 38000 ft | 450 kts | 46° |
| 2026-05-05 17:56 | 47.89426 | -0.78815 | 38000 ft | 450 kts | 46° |
| 2026-05-05 17:57 | 47.93738 | -0.72039 | 38001 ft | 450 kts | 46° |
| 2026-05-05 17:57 | 47.98045 | -0.65252 | 38000 ft | 450 kts | 46° |
| 2026-05-05 17:58 | 48.02324 | -0.58493 | 38000 ft | 450 kts | 46° |
| 2026-05-05 17:58 | 48.06625 | -0.51680 | 38001 ft | 450 kts | 46° |
| 2026-05-05 17:59 | 48.10919 | -0.44860 | 38000 ft | 450 kts | 46° |
| 2026-05-05 17:59 | 48.15214 | -0.38021 | 38000 ft | 451 kts | 46° |
| 2026-05-05 18:00 | 48.19506 | -0.31170 | 37994 ft | 451 kts | 46° |
| 2026-05-05 18:00 | 48.23789 | -0.24314 | 37995 ft | 451 kts | 46° |
| 2026-05-05 18:01 | 48.28074 | -0.17439 | 37999 ft | 451 kts | 47° |
| 2026-05-05 18:01 | 48.32355 | -0.10552 | 38000 ft | 451 kts | 47° |
| 2026-05-05 18:02 | 48.36614 | -0.03636 | 37999 ft | 451 kts | 49° |
| 2026-05-05 18:02 | 48.40717 | 0.03515 | 38000 ft | 451 kts | 49° |
| 2026-05-05 18:03 | 48.44859 | 0.10626 | 38002 ft | 451 kts | 49° |
| 2026-05-05 18:03 | 48.48957 | 0.17713 | 38003 ft | 451 kts | 49° |
| 2026-05-05 18:04 | 48.53071 | 0.24865 | 38003 ft | 451 kts | 49° |
| 2026-05-05 18:04 | 48.57176 | 0.32025 | 38003 ft | 451 kts | 49° |
| 2026-05-05 18:05 | 48.61284 | 0.39209 | 38001 ft | 451 kts | 49° |
| 2026-05-05 18:05 | 48.65384 | 0.46398 | 38000 ft | 451 kts | 49° |
| 2026-05-05 18:06 | 48.69481 | 0.53602 | 37997 ft | 451 kts | 49° |
| 2026-05-05 18:06 | 48.73568 | 0.60807 | 37998 ft | 451 kts | 49° |
| 2026-05-05 18:07 | 48.77659 | 0.68040 | 37999 ft | 451 kts | 49° |
| 2026-05-05 18:07 | 48.81739 | 0.75272 | 38000 ft | 451 kts | 49° |
| 2026-05-05 18:08 | 48.85817 | 0.82521 | 38001 ft | 451 kts | 49° |
| 2026-05-05 18:08 | 48.89864 | 0.89735 | 38002 ft | 451 kts | 49° |
| 2026-05-05 18:09 | 48.93936 | 0.97013 | 38003 ft | 451 kts | 49° |
| 2026-05-05 18:09 | 48.98007 | 1.04308 | 38005 ft | 451 kts | 49° |
| 2026-05-05 18:10 | 49.02065 | 1.11601 | 38006 ft | 451 kts | 50° |
| 2026-05-05 18:10 | 49.06122 | 1.18913 | 38007 ft | 451 kts | 50° |
| 2026-05-05 18:11 | 49.10174 | 1.26235 | 38007 ft | 451 kts | 50° |
| 2026-05-05 18:11 | 49.14217 | 1.33563 | 38004 ft | 451 kts | 50° |
| 2026-05-05 18:12 | 49.18257 | 1.40905 | 38008 ft | 451 kts | 50° |
| 2026-05-05 18:12 | 49.22299 | 1.48269 | 38002 ft | 451 kts | 50° |
| 2026-05-05 18:13 | 49.26367 | 1.55569 | 38000 ft | 451 kts | 46° |
| 2026-05-05 18:13 | 49.30864 | 1.62172 | 37999 ft | 450 kts | 43° |
| 2026-05-05 18:14 | 49.35399 | 1.68794 | 37998 ft | 450 kts | 43° |
| 2026-05-05 18:14 | 49.39926 | 1.75428 | 37996 ft | 450 kts | 43° |
| 2026-05-05 18:15 | 49.44453 | 1.82077 | 37995 ft | 450 kts | 43° |
| 2026-05-05 18:15 | 49.48970 | 1.88729 | 37995 ft | 450 kts | 44° |
| 2026-05-05 18:16 | 49.53719 | 1.94982 | 37994 ft | 450 kts | 35° |
| 2026-05-05 18:16 | 49.58771 | 2.00664 | 37994 ft | 450 kts | 36° |
| 2026-05-05 18:17 | 49.63815 | 2.06399 | 37994 ft | 450 kts | 36° |
| 2026-05-05 18:17 | 49.68853 | 2.12128 | 37996 ft | 450 kts | 36° |
| 2026-05-05 18:18 | 49.73871 | 2.17844 | 38001 ft | 450 kts | 36° |
| 2026-05-05 18:18 | 49.78910 | 2.23598 | 38001 ft | 451 kts | 36° |
| 2026-05-05 18:19 | 49.83957 | 2.29377 | 38004 ft | 451 kts | 36° |
| 2026-05-05 18:19 | 49.88993 | 2.35159 | 37734 ft | 450 kts | 36° |
| 2026-05-05 18:19 | 49.91505 | 2.38048 | 37475 ft | 448 kts | 36° |
| 2026-05-05 18:20 | 49.94011 | 2.40935 | 37221 ft | 448 kts | 36° |
| 2026-05-05 18:20 | 49.96519 | 2.43827 | 36979 ft | 449 kts | 36° |
| 2026-05-05 18:20 | 49.99022 | 2.46718 | 36729 ft | 449 kts | 36° |
| 2026-05-05 18:20 | 50.01525 | 2.49613 | 36480 ft | 449 kts | 36° |
| 2026-05-05 18:21 | 50.04026 | 2.52509 | 36230 ft | 449 kts | 36° |
| 2026-05-05 18:21 | 50.06531 | 2.55413 | 35989 ft | 449 kts | 36° |
| 2026-05-05 18:21 | 50.09038 | 2.58324 | 35736 ft | 450 kts | 36° |
| 2026-05-05 18:21 | 50.11548 | 2.61242 | 35484 ft | 450 kts | 37° |
| 2026-05-05 18:22 | 50.14061 | 2.64169 | 35236 ft | 451 kts | 37° |
| 2026-05-05 18:22 | 50.16579 | 2.67104 | 34986 ft | 451 kts | 37° |
| 2026-05-05 18:22 | 50.19093 | 2.70038 | 34738 ft | 452 kts | 37° |
| 2026-05-05 18:22 | 50.21612 | 2.72983 | 34489 ft | 452 kts | 37° |
| 2026-05-05 18:23 | 50.24132 | 2.75933 | 34239 ft | 452 kts | 37° |
| 2026-05-05 18:23 | 50.26649 | 2.78883 | 33991 ft | 453 kts | 37° |
| 2026-05-05 18:23 | 50.29173 | 2.81845 | 33740 ft | 453 kts | 37° |
| 2026-05-05 18:23 | 50.31659 | 2.84767 | 33494 ft | 454 kts | 37° |
| 2026-05-05 18:24 | 50.34189 | 2.87744 | 33238 ft | 454 kts | 37° |
| 2026-05-05 18:24 | 50.36713 | 2.90718 | 32996 ft | 455 kts | 37° |
| 2026-05-05 18:24 | 50.39242 | 2.93702 | 32746 ft | 455 kts | 37° |
| 2026-05-05 18:24 | 50.41798 | 2.96625 | 32495 ft | 455 kts | 33° |
| 2026-05-05 18:25 | 50.44542 | 2.99102 | 32247 ft | 456 kts | 27° |
| 2026-05-05 18:25 | 50.46400 | 3.00648 | 32083 ft | 456 kts | 28° |
| 2026-05-05 18:25 | 50.50138 | 3.03792 | 31749 ft | 457 kts | 28° |
| 2026-05-05 18:25 | 50.52943 | 3.06162 | 31499 ft | 457 kts | 28° |
| 2026-05-05 18:26 | 50.55743 | 3.08531 | 31251 ft | 458 kts | 28° |
| 2026-05-05 18:26 | 50.58551 | 3.10909 | 31001 ft | 458 kts | 28° |
| 2026-05-05 18:26 | 50.61366 | 3.13294 | 30753 ft | 459 kts | 28° |
| 2026-05-05 18:26 | 50.64170 | 3.15674 | 30499 ft | 457 kts | 28° |
| 2026-05-05 18:27 | 50.66960 | 3.18043 | 30247 ft | 455 kts | 28° |
| 2026-05-05 18:27 | 50.69739 | 3.20407 | 30003 ft | 453 kts | 28° |
| 2026-05-05 18:27 | 50.72511 | 3.22760 | 29757 ft | 451 kts | 28° |
| 2026-05-05 18:27 | 50.75282 | 3.25073 | 29501 ft | 450 kts | 27° |
| 2026-05-05 18:28 | 50.80805 | 3.29655 | 28627 ft | 448 kts | 27° |
| 2026-05-05 18:28 | 50.83555 | 3.31945 | 28036 ft | 445 kts | 27° |
| 2026-05-05 18:28 | 50.86277 | 3.34218 | 27448 ft | 440 kts | 27° |
| 2026-05-05 18:29 | 50.88937 | 3.36444 | 26885 ft | 436 kts | 27° |
| 2026-05-05 18:29 | 50.91607 | 3.38683 | 26301 ft | 431 kts | 27° |
| 2026-05-05 18:29 | 50.94243 | 3.40896 | 25730 ft | 427 kts | 27° |
| 2026-05-05 18:29 | 50.96851 | 3.43089 | 25163 ft | 422 kts | 27° |
| 2026-05-05 18:30 | 50.99435 | 3.45264 | 24595 ft | 418 kts | 27° |
| 2026-05-05 18:30 | 51.01994 | 3.47421 | 24032 ft | 414 kts | 27° |
| 2026-05-05 18:30 | 51.04521 | 3.49554 | 23473 ft | 409 kts | 27° |
| 2026-05-05 18:30 | 51.07021 | 3.51666 | 22916 ft | 405 kts | 27° |
| 2026-05-05 18:31 | 51.09495 | 3.53759 | 22366 ft | 401 kts | 28° |
| 2026-05-05 18:31 | 51.11951 | 3.55840 | 21920 ft | 397 kts | 28° |
| 2026-05-05 18:31 | 51.14385 | 3.57903 | 21639 ft | 397 kts | 28° |
| 2026-05-05 18:31 | 51.16825 | 3.59974 | 21260 ft | 397 kts | 28° |
| 2026-05-05 18:32 | 51.19256 | 3.62041 | 20885 ft | 395 kts | 28° |
| 2026-05-05 18:32 | 51.21709 | 3.63997 | 20507 ft | 391 kts | 21° |
| 2026-05-05 18:32 | 51.24294 | 3.65233 | 20114 ft | 388 kts | 11° |
| 2026-05-05 18:32 | 51.26978 | 3.65663 | 19623 ft | 386 kts | 359° |
| 2026-05-05 18:33 | 51.29650 | 3.65571 | 19125 ft | 382 kts | 358° |
| 2026-05-05 18:33 | 51.32263 | 3.65488 | 18631 ft | 378 kts | 359° |
| 2026-05-05 18:33 | 51.34929 | 3.65409 | 18125 ft | 377 kts | 359° |
| 2026-05-05 18:33 | 51.37506 | 3.65334 | 17627 ft | 374 kts | 359° |
| 2026-05-05 18:34 | 51.40084 | 3.65258 | 17133 ft | 370 kts | 359° |
| 2026-05-05 18:34 | 51.42656 | 3.65181 | 16633 ft | 369 kts | 359° |
| 2026-05-05 18:34 | 51.45220 | 3.65103 | 16131 ft | 366 kts | 359° |
| 2026-05-05 18:34 | 51.47744 | 3.65026 | 15633 ft | 362 kts | 358° |
| 2026-05-05 18:35 | 51.50257 | 3.65007 | 15147 ft | 359 kts | 4° |
| 2026-05-05 18:35 | 51.52671 | 3.65925 | 14660 ft | 357 kts | 23° |
| 2026-05-05 18:35 | 51.54770 | 3.68026 | 14123 ft | 355 kts | 36° |
| 2026-05-05 18:35 | 51.56738 | 3.70409 | 13602 ft | 353 kts | 37° |
| 2026-05-05 18:36 | 51.58684 | 3.72800 | 13080 ft | 350 kts | 37° |
| 2026-05-05 18:36 | 51.60609 | 3.75176 | 12568 ft | 348 kts | 37° |
| 2026-05-05 18:36 | 51.62520 | 3.77535 | 12053 ft | 345 kts | 37° |
| 2026-05-05 18:36 | 51.64420 | 3.79881 | 11573 ft | 342 kts | 37° |
| 2026-05-05 18:37 | 51.66295 | 3.82196 | 11298 ft | 340 kts | 37° |
| 2026-05-05 18:37 | 51.68180 | 3.84523 | 11059 ft | 342 kts | 37° |
| 2026-05-05 18:37 | 51.70055 | 3.86842 | 10763 ft | 338 kts | 37° |
| 2026-05-05 18:37 | 51.71915 | 3.89143 | 10349 ft | 334 kts | 37° |
| 2026-05-05 18:38 | 51.73120 | 3.90636 | 10256 ft | 325 kts | 37° |
| 2026-05-05 18:38 | 51.74876 | 3.92813 | 10125 ft | 311 kts | 37° |
| 2026-05-05 18:38 | 51.76544 | 3.94884 | 9934 ft | 294 kts | 37° |
| 2026-05-05 18:38 | 51.78148 | 3.96877 | 9640 ft | 288 kts | 37° |
| 2026-05-05 18:39 | 51.79731 | 3.98844 | 9247 ft | 287 kts | 37° |
| 2026-05-05 18:39 | 51.81308 | 4.00807 | 8865 ft | 285 kts | 37° |
| 2026-05-05 18:39 | 51.82873 | 4.02756 | 8485 ft | 284 kts | 37° |
| 2026-05-05 18:39 | 51.84432 | 4.04698 | 8098 ft | 282 kts | 37° |
| 2026-05-05 18:40 | 51.85979 | 4.06629 | 7714 ft | 280 kts | 37° |
| 2026-05-05 18:40 | 51.87517 | 4.08549 | 7336 ft | 279 kts | 37° |
| 2026-05-05 18:40 | 51.89051 | 4.10466 | 6957 ft | 277 kts | 37° |
| 2026-05-05 18:40 | 51.90574 | 4.12372 | 6581 ft | 276 kts | 37° |
| 2026-05-05 18:41 | 51.92043 | 4.14357 | 6205 ft | 274 kts | 42° |
| 2026-05-05 18:41 | 51.93443 | 4.16412 | 5992 ft | 266 kts | 41° |
| 2026-05-05 18:41 | 51.94791 | 4.18375 | 5886 ft | 255 kts | 41° |
| 2026-05-05 18:41 | 51.96080 | 4.20249 | 5784 ft | 244 kts | 41° |
| 2026-05-05 18:42 | 51.97328 | 4.22066 | 5571 ft | 238 kts | 41° |
| 2026-05-05 18:42 | 51.98559 | 4.23859 | 5504 ft | 241 kts | 41° |
| 2026-05-05 18:42 | 51.99805 | 4.25675 | 5500 ft | 240 kts | 41° |
| 2026-05-05 18:42 | 52.01045 | 4.27486 | 5500 ft | 240 kts | 41° |
| 2026-05-05 18:43 | 52.02404 | 4.29026 | 5501 ft | 239 kts | 19° |
| 2026-05-05 18:43 | 52.04010 | 4.29716 | 5490 ft | 239 kts | 12° |
| 2026-05-05 18:43 | 52.05620 | 4.30311 | 5296 ft | 236 kts | 12° |
| 2026-05-05 18:43 | 52.07226 | 4.30903 | 4928 ft | 236 kts | 12° |
| 2026-05-05 18:44 | 52.08822 | 4.31492 | 4602 ft | 234 kts | 12° |
| 2026-05-05 18:44 | 52.10371 | 4.32064 | 4415 ft | 231 kts | 12° |
| 2026-05-05 18:44 | 52.11891 | 4.32898 | 4047 ft | 233 kts | 30° |
| 2026-05-05 18:44 | 52.13237 | 4.34375 | 3673 ft | 233 kts | 42° |
| 2026-05-05 18:45 | 52.14292 | 4.36374 | 3321 ft | 233 kts | 54° |
| 2026-05-05 18:45 | 52.15172 | 4.38558 | 3122 ft | 229 kts | 58° |
| 2026-05-05 18:45 | 52.16036 | 4.40788 | 3093 ft | 233 kts | 57° |
| 2026-05-05 18:45 | 52.16893 | 4.42978 | 3091 ft | 223 kts | 57° |
| 2026-05-05 18:46 | 52.17693 | 4.45022 | 3116 ft | 202 kts | 57° |
| 2026-05-05 18:46 | 52.18412 | 4.46863 | 3084 ft | 187 kts | 57° |
| 2026-05-05 18:46 | 52.19125 | 4.48686 | 3089 ft | 190 kts | 57° |
| 2026-05-05 18:46 | 52.19835 | 4.50502 | 3091 ft | 190 kts | 57° |
| 2026-05-05 18:47 | 52.20545 | 4.52322 | 3017 ft | 191 kts | 57° |
| 2026-05-05 18:47 | 52.21257 | 4.54145 | 2775 ft | 190 kts | 57° |
| 2026-05-05 18:47 | 52.21963 | 4.55952 | 2514 ft | 188 kts | 57° |
| 2026-05-05 18:47 | 52.22664 | 4.57751 | 2266 ft | 188 kts | 57° |
| 2026-05-05 18:48 | 52.23364 | 4.59544 | 2014 ft | 187 kts | 57° |
| 2026-05-05 18:48 | 52.24061 | 4.61331 | 1769 ft | 188 kts | 57° |
| 2026-05-05 18:48 | 52.24771 | 4.63153 | 1515 ft | 191 kts | 57° |
| 2026-05-05 18:48 | 52.25480 | 4.64973 | 1261 ft | 190 kts | 57° |
| 2026-05-05 18:49 | 52.26188 | 4.66789 | 1004 ft | 188 kts | 57° |
| 2026-05-05 18:49 | 52.26892 | 4.68595 | 756 ft | 188 kts | 57° |
| 2026-05-05 18:49 | 52.27571 | 4.70334 | 507 ft | 175 kts | 57° |
| 2026-05-05 18:49 | 52.28190 | 4.71923 | 285 ft | 157 kts | 57° |
| 2026-05-05 18:50 | 52.28740 | 4.73344 | 97 ft | 144 kts | 57° |
| 2026-05-05 18:50 | 52.29286 | 4.74688 | 20 ft | 131 kts | 57° |
| 2026-05-05 18:50 | 52.29669 | 4.75696 | 17 ft | 67 kts | 58° |
| 2026-05-05 18:50 | 52.29920 | 4.76362 | 12 ft | 67 kts | 53° |
| 2026-05-05 18:51 | 52.30138 | 4.76633 | 19 ft | 33 kts | 29° |
| 2026-05-05 18:51 | 52.30195 | 4.76681 | 16 ft | 0 kts | 27° |
| 2026-05-05 18:52 | 52.30230 | 4.76711 | 14 ft | 16 kts | 27° |
| 2026-05-05 18:53 | 52.30347 | 4.76694 | 9 ft | 17 kts | 302° |
| 2026-05-05 18:53 | 52.30404 | 4.76544 | 7 ft | 18 kts | 324° |
| 2026-05-05 18:53 | 52.30483 | 4.76452 | 3 ft | 14 kts | 308° |
| 2026-05-05 18:53 | 52.30480 | 4.76299 | 3 ft | 6 kts | 238° |
| 2026-05-05 18:54 | 52.30479 | 4.76297 | 3 ft | 0 kts | 238° |